BRS03 SBBR-GVAC
Flight info
| Callsign | BRS03 |
|---|---|
| Flight time | 5h 26m |
| Altitude | 37000 |
| Route | EPDEP UZ60 DOTKU DCT FLZ DCT TOGAB/N0450F390 UZ18 ARTIG UN866 DEKON/N0448F400 UN866 AMDOL/N0449F390 DCT RANUR GAGUS1F |
| Aircraft | E190/M-SDE3GILORVW/S |
Departure
| Time | 2026-04-16 23:10 |
|---|---|
| Airport | Presidente Juscelino Kubitschek International Airport (SBBR) |
Arrival
| Time | 2026-04-17 04:37 |
|---|---|
| Airport | Amílcar Cabral International Airport (GVAC) |
| Time | Latitude | Longitude | Altitude | Speed | Heading |
|---|---|---|---|---|---|
| 2026-04-16 22:48 | -15.86576 | -47.90500 | 3488 ft | 0 kts | 266° |
| 2026-04-16 22:59 | -15.86577 | -47.90505 | 3486 ft | 2 kts | 266° |
| 2026-04-16 23:00 | -15.86571 | -47.90534 | 3484 ft | 2 kts | 299° |
| 2026-04-16 23:00 | -15.86547 | -47.90542 | 3488 ft | 5 kts | 349° |
| 2026-04-16 23:00 | -15.86524 | -47.90562 | 3481 ft | 4 kts | 278° |
| 2026-04-16 23:00 | -15.86522 | -47.90634 | 3475 ft | 11 kts | 268° |
| 2026-04-16 23:01 | -15.86504 | -47.90696 | 3471 ft | 9 kts | 333° |
| 2026-04-16 23:01 | -15.86439 | -47.90710 | 3470 ft | 8 kts | 343° |
| 2026-04-16 23:01 | -15.86421 | -47.90742 | 3470 ft | 4 kts | 280° |
| 2026-04-16 23:01 | -15.86423 | -47.90773 | 3470 ft | 6 kts | 266° |
| 2026-04-16 23:02 | -15.86426 | -47.90828 | 3470 ft | 9 kts | 266° |
| 2026-04-16 23:02 | -15.86432 | -47.90905 | 3470 ft | 11 kts | 265° |
| 2026-04-16 23:02 | -15.86436 | -47.90985 | 3469 ft | 12 kts | 266° |
| 2026-04-16 23:03 | -15.86437 | -47.90994 | 3469 ft | 12 kts | 266° |
| 2026-04-16 23:03 | -15.86439 | -47.91029 | 3469 ft | 0 kts | 264° |
| 2026-04-16 23:03 | -15.86440 | -47.91035 | 3469 ft | 2 kts | 264° |
| 2026-04-16 23:03 | -15.86442 | -47.91064 | 3469 ft | 6 kts | 265° |
| 2026-04-16 23:04 | -15.86446 | -47.91124 | 3469 ft | 10 kts | 267° |
| 2026-04-16 23:04 | -15.86451 | -47.91215 | 3469 ft | 15 kts | 266° |
| 2026-04-16 23:04 | -15.86459 | -47.91334 | 3469 ft | 19 kts | 266° |
| 2026-04-16 23:04 | -15.86468 | -47.91477 | 3466 ft | 21 kts | 266° |
| 2026-04-16 23:05 | -15.86478 | -47.91629 | 3465 ft | 20 kts | 266° |
| 2026-04-16 23:05 | -15.86487 | -47.91758 | 3463 ft | 15 kts | 267° |
| 2026-04-16 23:05 | -15.86492 | -47.91862 | 3463 ft | 14 kts | 266° |
| 2026-04-16 23:05 | -15.86499 | -47.91958 | 3462 ft | 14 kts | 266° |
| 2026-04-16 23:06 | -15.86506 | -47.92067 | 3461 ft | 16 kts | 266° |
| 2026-04-16 23:06 | -15.86512 | -47.92157 | 3462 ft | 12 kts | 265° |
| 2026-04-16 23:06 | -15.86517 | -47.92246 | 3462 ft | 12 kts | 268° |
| 2026-04-16 23:06 | -15.86520 | -47.92330 | 3461 ft | 11 kts | 266° |
| 2026-04-16 23:07 | -15.86530 | -47.92429 | 3460 ft | 16 kts | 272° |
| 2026-04-16 23:07 | -15.86535 | -47.92533 | 3462 ft | 15 kts | 266° |
| 2026-04-16 23:07 | -15.86544 | -47.92656 | 3460 ft | 20 kts | 266° |
| 2026-04-16 23:07 | -15.86528 | -47.92756 | 3466 ft | 8 kts | 327° |
| 2026-04-16 23:08 | -15.86494 | -47.92765 | 3467 ft | 5 kts | 353° |
| 2026-04-16 23:08 | -15.86449 | -47.92769 | 3466 ft | 8 kts | 356° |
| 2026-04-16 23:08 | -15.86389 | -47.92741 | 3463 ft | 11 kts | 48° |
| 2026-04-16 23:08 | -15.86353 | -47.92674 | 3464 ft | 8 kts | 82° |
| 2026-04-16 23:09 | -15.86353 | -47.92669 | 3464 ft | 0 kts | 86° |
| 2026-04-16 23:09 | -15.86350 | -47.92635 | 3463 ft | 23 kts | 86° |
| 2026-04-16 23:09 | -15.86325 | -47.92250 | 3467 ft | 84 kts | 86° |
| 2026-04-16 23:09 | -15.86274 | -47.91438 | 3466 ft | 140 kts | 85° |
| 2026-04-16 23:10 | -15.86206 | -47.90258 | 3485 ft | 184 kts | 88° |
| 2026-04-16 23:10 | -15.86373 | -47.88862 | 3640 ft | 209 kts | 100° |
| 2026-04-16 23:10 | -15.86391 | -47.87237 | 4050 ft | 237 kts | 86° |
| 2026-04-16 23:10 | -15.86188 | -47.85523 | 4959 ft | 234 kts | 81° |
| 2026-04-16 23:11 | -15.85919 | -47.83914 | 6109 ft | 219 kts | 82° |
| 2026-04-16 23:11 | -15.85721 | -47.82349 | 6853 ft | 220 kts | 84° |
| 2026-04-16 23:11 | -15.85576 | -47.80710 | 7234 ft | 235 kts | 86° |
| 2026-04-16 23:11 | -15.85455 | -47.78965 | 7755 ft | 249 kts | 86° |
| 2026-04-16 23:12 | -15.85133 | -47.77110 | 8108 ft | 275 kts | 70° |
| 2026-04-16 23:12 | -15.84269 | -47.75273 | 8643 ft | 291 kts | 55° |
| 2026-04-16 23:12 | -15.82831 | -47.73769 | 9354 ft | 297 kts | 38° |
| 2026-04-16 23:12 | -15.81143 | -47.72459 | 10111 ft | 307 kts | 35° |
| 2026-04-16 23:13 | -15.79331 | -47.71121 | 10456 ft | 333 kts | 34° |
| 2026-04-16 23:13 | -15.77346 | -47.69711 | 10858 ft | 353 kts | 34° |
| 2026-04-16 23:13 | -15.75324 | -47.68259 | 11693 ft | 358 kts | 34° |
| 2026-04-16 23:13 | -15.73299 | -47.66769 | 12597 ft | 360 kts | 34° |
| 2026-04-16 23:14 | -15.71272 | -47.65263 | 13572 ft | 361 kts | 34° |
| 2026-04-16 23:14 | -15.69222 | -47.63747 | 14467 ft | 363 kts | 34° |
| 2026-04-16 23:14 | -15.67141 | -47.62228 | 15275 ft | 368 kts | 34° |
| 2026-04-16 23:14 | -15.65019 | -47.60694 | 16074 ft | 373 kts | 33° |
| 2026-04-16 23:15 | -15.60701 | -47.57586 | 17601 ft | 382 kts | 33° |
| 2026-04-16 23:15 | -15.58521 | -47.56027 | 18283 ft | 387 kts | 33° |
| 2026-04-16 23:15 | -15.56295 | -47.54440 | 18863 ft | 390 kts | 33° |
| 2026-04-16 23:16 | -15.54040 | -47.52836 | 19416 ft | 394 kts | 33° |
| 2026-04-16 23:16 | -15.51767 | -47.51227 | 19960 ft | 398 kts | 33° |
| 2026-04-16 23:16 | -15.49462 | -47.49599 | 20494 ft | 401 kts | 33° |
| 2026-04-16 23:16 | -15.47139 | -47.47963 | 20999 ft | 405 kts | 33° |
| 2026-04-16 23:17 | -15.45586 | -47.46873 | 21346 ft | 407 kts | 33° |
| 2026-04-16 23:17 | -15.43227 | -47.45218 | 21844 ft | 411 kts | 33° |
| 2026-04-16 23:17 | -15.40835 | -47.43545 | 22335 ft | 415 kts | 33° |
| 2026-04-16 23:17 | -15.38428 | -47.41867 | 22841 ft | 418 kts | 33° |
| 2026-04-16 23:18 | -15.35996 | -47.40173 | 23282 ft | 422 kts | 33° |
| 2026-04-16 23:18 | -15.33575 | -47.38492 | 23696 ft | 425 kts | 33° |
| 2026-04-16 23:18 | -15.31103 | -47.36778 | 24084 ft | 428 kts | 33° |
| 2026-04-16 23:18 | -15.28610 | -47.35051 | 24450 ft | 432 kts | 33° |
| 2026-04-16 23:19 | -15.26090 | -47.33310 | 24807 ft | 435 kts | 33° |
| 2026-04-16 23:19 | -15.23562 | -47.31568 | 25153 ft | 438 kts | 33° |
| 2026-04-16 23:19 | -15.21007 | -47.29810 | 25480 ft | 442 kts | 33° |
| 2026-04-16 23:19 | -15.18435 | -47.28045 | 25805 ft | 445 kts | 33° |
| 2026-04-16 23:20 | -15.15842 | -47.26268 | 26115 ft | 448 kts | 33° |
| 2026-04-16 23:20 | -15.13233 | -47.24483 | 26437 ft | 451 kts | 32° |
| 2026-04-16 23:20 | -15.10604 | -47.22687 | 26712 ft | 454 kts | 32° |
| 2026-04-16 23:20 | -15.07953 | -47.20876 | 27032 ft | 457 kts | 32° |
| 2026-04-16 23:21 | -15.05338 | -47.19093 | 27334 ft | 460 kts | 33° |
| 2026-04-16 23:21 | -15.02651 | -47.17265 | 27614 ft | 463 kts | 32° |
| 2026-04-16 23:21 | -14.99915 | -47.15407 | 27926 ft | 465 kts | 32° |
| 2026-04-16 23:21 | -14.97187 | -47.13555 | 28206 ft | 468 kts | 32° |
| 2026-04-16 23:22 | -14.94488 | -47.11726 | 28478 ft | 471 kts | 32° |
| 2026-04-16 23:22 | -14.91740 | -47.09865 | 28744 ft | 474 kts | 32° |
| 2026-04-16 23:22 | -14.88937 | -47.07970 | 29027 ft | 476 kts | 32° |
| 2026-04-16 23:22 | -14.86167 | -47.06099 | 29367 ft | 476 kts | 32° |
| 2026-04-16 23:23 | -14.83395 | -47.04227 | 29711 ft | 476 kts | 32° |
| 2026-04-16 23:23 | -14.80623 | -47.02360 | 30022 ft | 476 kts | 32° |
| 2026-04-16 23:23 | -14.77867 | -47.00468 | 30300 ft | 475 kts | 35° |
| 2026-04-16 23:23 | -14.75218 | -46.98419 | 30590 ft | 475 kts | 37° |
| 2026-04-16 23:24 | -14.72616 | -46.96317 | 30888 ft | 474 kts | 38° |
| 2026-04-16 23:24 | -14.70058 | -46.94250 | 31215 ft | 472 kts | 38° |
| 2026-04-16 23:24 | -14.67467 | -46.92162 | 31525 ft | 471 kts | 38° |
| 2026-04-16 23:24 | -14.64881 | -46.90085 | 31830 ft | 471 kts | 38° |
| 2026-04-16 23:25 | -14.62296 | -46.88011 | 32140 ft | 470 kts | 38° |
| 2026-04-16 23:25 | -14.59717 | -46.85945 | 32436 ft | 469 kts | 38° |
| 2026-04-16 23:25 | -14.57109 | -46.83855 | 32759 ft | 468 kts | 38° |
| 2026-04-16 23:25 | -14.54538 | -46.81796 | 33071 ft | 467 kts | 38° |
| 2026-04-16 23:26 | -14.52002 | -46.79767 | 33366 ft | 467 kts | 38° |
| 2026-04-16 23:26 | -14.49433 | -46.77711 | 33657 ft | 466 kts | 38° |
| 2026-04-16 23:26 | -14.46875 | -46.75667 | 33947 ft | 465 kts | 38° |
| 2026-04-16 23:26 | -14.44316 | -46.73620 | 34165 ft | 465 kts | 38° |
| 2026-04-16 23:27 | -14.41726 | -46.71550 | 34373 ft | 465 kts | 38° |
| 2026-04-16 23:27 | -14.39168 | -46.69506 | 34576 ft | 465 kts | 38° |
| 2026-04-16 23:27 | -14.36611 | -46.67464 | 34804 ft | 465 kts | 38° |
| 2026-04-16 23:27 | -14.34089 | -46.65450 | 35004 ft | 464 kts | 38° |
| 2026-04-16 23:28 | -14.31544 | -46.63418 | 35214 ft | 463 kts | 38° |
| 2026-04-16 23:28 | -14.28982 | -46.61373 | 35422 ft | 463 kts | 38° |
| 2026-04-16 23:28 | -14.26441 | -46.59346 | 35617 ft | 463 kts | 38° |
| 2026-04-16 23:28 | -14.23894 | -46.57314 | 35815 ft | 462 kts | 38° |
| 2026-04-16 23:29 | -14.21357 | -46.55291 | 36092 ft | 459 kts | 38° |
| 2026-04-16 23:29 | -14.18829 | -46.53276 | 36303 ft | 459 kts | 38° |
| 2026-04-16 23:29 | -14.16298 | -46.51257 | 36468 ft | 459 kts | 38° |
| 2026-04-16 23:29 | -14.13777 | -46.49247 | 36602 ft | 459 kts | 38° |
| 2026-04-16 23:30 | -14.11249 | -46.47232 | 36740 ft | 458 kts | 38° |
| 2026-04-16 23:30 | -14.08734 | -46.45230 | 37004 ft | 454 kts | 38° |
| 2026-04-16 23:30 | -14.06228 | -46.43234 | 37028 ft | 457 kts | 38° |
| 2026-04-16 23:31 | -14.01159 | -46.39197 | 36936 ft | 465 kts | 38° |
| 2026-04-16 23:31 | -13.96004 | -46.35097 | 36908 ft | 467 kts | 38° |
| 2026-04-16 23:32 | -13.90854 | -46.31000 | 36937 ft | 470 kts | 38° |
| 2026-04-16 23:32 | -13.85668 | -46.26878 | 36919 ft | 471 kts | 38° |
| 2026-04-16 23:33 | -13.80483 | -46.22759 | 36918 ft | 471 kts | 38° |
| 2026-04-16 23:33 | -13.75264 | -46.18616 | 36920 ft | 471 kts | 38° |
| 2026-04-16 23:34 | -13.70093 | -46.14513 | 36925 ft | 467 kts | 38° |
| 2026-04-16 23:34 | -13.64980 | -46.10460 | 36929 ft | 467 kts | 38° |
| 2026-04-16 23:35 | -13.59832 | -46.06379 | 36930 ft | 467 kts | 38° |
| 2026-04-16 23:35 | -13.54684 | -46.02302 | 36937 ft | 467 kts | 38° |
| 2026-04-16 23:36 | -13.49537 | -45.98228 | 36931 ft | 467 kts | 38° |
| 2026-04-16 23:36 | -13.44397 | -45.94161 | 36937 ft | 464 kts | 38° |
| 2026-04-16 23:37 | -13.39273 | -45.90109 | 36937 ft | 465 kts | 38° |
| 2026-04-16 23:37 | -13.34144 | -45.86055 | 36933 ft | 465 kts | 38° |
| 2026-04-16 23:38 | -13.29021 | -45.82009 | 36929 ft | 465 kts | 38° |
| 2026-04-16 23:38 | -13.23891 | -45.77960 | 36937 ft | 465 kts | 38° |
| 2026-04-16 23:39 | -13.18794 | -45.73938 | 36928 ft | 461 kts | 38° |
| 2026-04-16 23:39 | -13.13697 | -45.69919 | 36931 ft | 463 kts | 38° |
| 2026-04-16 23:40 | -13.08592 | -45.65893 | 36928 ft | 464 kts | 38° |
| 2026-04-16 23:40 | -13.03456 | -45.61851 | 36931 ft | 464 kts | 38° |
| 2026-04-16 23:41 | -12.98366 | -45.57848 | 36931 ft | 464 kts | 38° |
| 2026-04-16 23:41 | -12.93266 | -45.53838 | 36924 ft | 460 kts | 38° |
| 2026-04-16 23:42 | -12.88185 | -45.49846 | 36925 ft | 460 kts | 38° |
| 2026-04-16 23:42 | -12.83093 | -45.45848 | 36921 ft | 462 kts | 38° |
| 2026-04-16 23:43 | -12.77974 | -45.41830 | 36928 ft | 463 kts | 38° |
| 2026-04-16 23:43 | -12.72859 | -45.37817 | 36925 ft | 462 kts | 38° |
| 2026-04-16 23:44 | -12.67803 | -45.33854 | 36919 ft | 460 kts | 38° |
| 2026-04-16 23:44 | -12.62714 | -45.29866 | 36924 ft | 460 kts | 38° |
| 2026-04-16 23:45 | -12.57619 | -45.25875 | 36918 ft | 461 kts | 38° |
| 2026-04-16 23:45 | -12.52554 | -45.21862 | 36917 ft | 461 kts | 42° |
| 2026-04-16 23:46 | -12.47797 | -45.17431 | 36925 ft | 461 kts | 44° |
| 2026-04-16 23:46 | -12.43094 | -45.12986 | 36915 ft | 460 kts | 44° |
| 2026-04-16 23:47 | -12.38374 | -45.08534 | 36918 ft | 461 kts | 44° |
| 2026-04-16 23:47 | -12.33678 | -45.04112 | 36911 ft | 461 kts | 44° |
| 2026-04-16 23:48 | -12.28949 | -44.99660 | 36905 ft | 460 kts | 44° |
| 2026-04-16 23:48 | -12.24251 | -44.95240 | 36909 ft | 461 kts | 43° |
| 2026-04-16 23:49 | -12.19507 | -44.90780 | 36913 ft | 464 kts | 43° |
| 2026-04-16 23:49 | -12.14748 | -44.86307 | 36907 ft | 465 kts | 43° |
| 2026-04-16 23:50 | -12.09985 | -44.81835 | 36912 ft | 464 kts | 43° |
| 2026-04-16 23:50 | -12.05249 | -44.77389 | 36894 ft | 461 kts | 44° |
| 2026-04-16 23:51 | -12.00517 | -44.72947 | 36893 ft | 463 kts | 44° |
| 2026-04-16 23:51 | -11.95781 | -44.68505 | 36906 ft | 465 kts | 43° |
| 2026-04-16 23:52 | -11.91006 | -44.64029 | 36898 ft | 465 kts | 43° |
| 2026-04-16 23:52 | -11.87046 | -44.60319 | 36891 ft | 463 kts | 44° |
| 2026-04-16 23:53 | -11.82303 | -44.55877 | 36882 ft | 462 kts | 44° |
| 2026-04-16 23:53 | -11.77544 | -44.51421 | 36881 ft | 465 kts | 43° |
| 2026-04-16 23:54 | -11.72754 | -44.46939 | 36894 ft | 467 kts | 43° |
| 2026-04-16 23:54 | -11.67989 | -44.42483 | 36879 ft | 467 kts | 43° |
| 2026-04-16 23:55 | -11.63218 | -44.38025 | 36876 ft | 463 kts | 44° |
| 2026-04-16 23:55 | -11.58463 | -44.33581 | 36883 ft | 464 kts | 43° |
| 2026-04-16 23:56 | -11.53682 | -44.29117 | 36883 ft | 468 kts | 43° |
| 2026-04-16 23:56 | -11.48880 | -44.24635 | 36879 ft | 469 kts | 43° |
| 2026-04-16 23:57 | -11.44081 | -44.20159 | 36874 ft | 465 kts | 43° |
| 2026-04-16 23:57 | -11.39305 | -44.15704 | 36882 ft | 465 kts | 43° |
| 2026-04-16 23:58 | -11.34523 | -44.11247 | 36879 ft | 467 kts | 43° |
| 2026-04-16 23:58 | -11.29749 | -44.06800 | 36884 ft | 469 kts | 43° |
| 2026-04-16 23:59 | -11.24937 | -44.02319 | 36881 ft | 468 kts | 43° |
| 2026-04-16 23:59 | -11.20138 | -43.97853 | 36879 ft | 467 kts | 43° |
| 2026-04-17 00:00 | -11.15341 | -43.93390 | 36884 ft | 467 kts | 43° |
| 2026-04-17 00:00 | -11.10540 | -43.88926 | 36882 ft | 467 kts | 43° |
| 2026-04-17 00:01 | -11.05764 | -43.84487 | 36887 ft | 467 kts | 43° |
| 2026-04-17 00:01 | -11.00976 | -43.80040 | 36877 ft | 464 kts | 43° |
| 2026-04-17 00:02 | -10.96208 | -43.75612 | 36878 ft | 464 kts | 43° |
| 2026-04-17 00:02 | -10.91434 | -43.71181 | 36883 ft | 464 kts | 43° |
| 2026-04-17 00:03 | -10.86638 | -43.66731 | 36890 ft | 469 kts | 43° |
| 2026-04-17 00:03 | -10.81814 | -43.62258 | 36888 ft | 469 kts | 43° |
| 2026-04-17 00:04 | -10.77009 | -43.57805 | 36879 ft | 466 kts | 43° |
| 2026-04-17 00:04 | -10.72211 | -43.53360 | 36891 ft | 467 kts | 43° |
| 2026-04-17 00:05 | -10.67409 | -43.48913 | 36886 ft | 467 kts | 43° |
| 2026-04-17 00:05 | -10.62575 | -43.44439 | 36896 ft | 471 kts | 43° |
| 2026-04-17 00:06 | -10.57734 | -43.39959 | 36878 ft | 469 kts | 43° |
| 2026-04-17 00:06 | -10.52918 | -43.35505 | 36891 ft | 469 kts | 43° |
| 2026-04-17 00:07 | -10.48083 | -43.31036 | 36889 ft | 470 kts | 43° |
| 2026-04-17 00:07 | -10.43277 | -43.26595 | 36883 ft | 471 kts | 42° |
| 2026-04-17 00:08 | -10.38405 | -43.22096 | 36892 ft | 474 kts | 42° |
| 2026-04-17 00:08 | -10.33522 | -43.17588 | 36884 ft | 474 kts | 42° |
| 2026-04-17 00:09 | -10.28637 | -43.13081 | 36887 ft | 474 kts | 42° |
| 2026-04-17 00:09 | -10.23756 | -43.08579 | 36884 ft | 474 kts | 42° |
| 2026-04-17 00:10 | -10.18864 | -43.04068 | 36872 ft | 477 kts | 41° |
| 2026-04-17 00:10 | -10.13942 | -42.99533 | 36892 ft | 478 kts | 41° |
| 2026-04-17 00:11 | -10.09008 | -42.94987 | 36883 ft | 479 kts | 41° |
| 2026-04-17 00:11 | -10.04104 | -42.90472 | 36882 ft | 478 kts | 41° |
| 2026-04-17 00:12 | -9.99164 | -42.85926 | 36886 ft | 478 kts | 41° |
| 2026-04-17 00:12 | -9.94236 | -42.81393 | 36889 ft | 481 kts | 41° |
| 2026-04-17 00:13 | -9.89281 | -42.76835 | 36886 ft | 480 kts | 41° |
| 2026-04-17 00:13 | -9.84319 | -42.72275 | 36886 ft | 480 kts | 41° |
| 2026-04-17 00:14 | -9.79380 | -42.67737 | 36884 ft | 480 kts | 41° |
| 2026-04-17 00:14 | -9.74418 | -42.63179 | 36885 ft | 480 kts | 41° |
| 2026-04-17 00:15 | -9.69484 | -42.58650 | 36889 ft | 481 kts | 40° |
| 2026-04-17 00:15 | -9.64508 | -42.54084 | 36891 ft | 481 kts | 40° |
| 2026-04-17 00:16 | -9.59554 | -42.49540 | 36891 ft | 481 kts | 40° |
| 2026-04-17 00:16 | -9.54571 | -42.44972 | 36894 ft | 481 kts | 40° |
| 2026-04-17 00:17 | -9.49635 | -42.40446 | 36884 ft | 481 kts | 40° |
| 2026-04-17 00:17 | -9.44653 | -42.35883 | 36889 ft | 483 kts | 40° |
| 2026-04-17 00:18 | -9.39682 | -42.31331 | 36890 ft | 482 kts | 40° |
| 2026-04-17 00:18 | -9.34690 | -42.26761 | 36896 ft | 482 kts | 40° |
| 2026-04-17 00:19 | -9.29731 | -42.22224 | 36898 ft | 482 kts | 40° |
| 2026-04-17 00:19 | -9.24739 | -42.17658 | 36892 ft | 481 kts | 39° |
| 2026-04-17 00:20 | -9.19794 | -42.13136 | 36892 ft | 482 kts | 39° |
| 2026-04-17 00:20 | -9.14819 | -42.08591 | 36897 ft | 482 kts | 39° |
| 2026-04-17 00:21 | -9.09831 | -42.04033 | 36897 ft | 482 kts | 39° |
| 2026-04-17 00:21 | -9.04880 | -41.99512 | 36898 ft | 482 kts | 39° |
| 2026-04-17 00:22 | -8.97415 | -41.92698 | 36900 ft | 480 kts | 39° |
| 2026-04-17 00:22 | -8.92470 | -41.88186 | 36894 ft | 480 kts | 39° |
| 2026-04-17 00:23 | -8.87497 | -41.83652 | 36894 ft | 481 kts | 39° |
| 2026-04-17 00:23 | -8.82552 | -41.79144 | 36905 ft | 480 kts | 39° |
| 2026-04-17 00:24 | -8.77570 | -41.74604 | 36899 ft | 479 kts | 39° |
| 2026-04-17 00:24 | -8.72602 | -41.70078 | 36899 ft | 480 kts | 39° |
| 2026-04-17 00:25 | -8.67645 | -41.65564 | 36904 ft | 479 kts | 39° |
| 2026-04-17 00:25 | -8.62716 | -41.61077 | 36904 ft | 480 kts | 39° |
| 2026-04-17 00:26 | -8.57767 | -41.56574 | 36907 ft | 479 kts | 39° |
| 2026-04-17 00:26 | -8.52789 | -41.52045 | 36905 ft | 478 kts | 39° |
| 2026-04-17 00:27 | -8.47853 | -41.47558 | 36903 ft | 479 kts | 39° |
| 2026-04-17 00:27 | -8.42900 | -41.43055 | 36907 ft | 479 kts | 39° |
| 2026-04-17 00:28 | -8.37956 | -41.38562 | 36910 ft | 479 kts | 39° |
| 2026-04-17 00:28 | -8.32983 | -41.34046 | 36920 ft | 479 kts | 39° |
| 2026-04-17 00:29 | -8.28048 | -41.29565 | 36898 ft | 478 kts | 39° |
| 2026-04-17 00:29 | -8.23107 | -41.25082 | 36912 ft | 479 kts | 39° |
| 2026-04-17 00:30 | -8.18137 | -41.20570 | 36907 ft | 479 kts | 39° |
| 2026-04-17 00:30 | -8.13165 | -41.16060 | 36909 ft | 479 kts | 39° |
| 2026-04-17 00:31 | -8.08229 | -41.11583 | 36907 ft | 479 kts | 39° |
| 2026-04-17 00:31 | -8.03256 | -41.07076 | 36916 ft | 479 kts | 39° |
| 2026-04-17 00:32 | -7.98322 | -41.02606 | 36916 ft | 479 kts | 39° |
| 2026-04-17 00:32 | -7.93356 | -40.98105 | 36911 ft | 479 kts | 39° |
| 2026-04-17 00:33 | -7.88383 | -40.93604 | 36913 ft | 479 kts | 39° |
| 2026-04-17 00:33 | -7.83454 | -40.89142 | 36917 ft | 478 kts | 39° |
| 2026-04-17 00:34 | -7.78495 | -40.84654 | 36918 ft | 478 kts | 39° |
| 2026-04-17 00:34 | -7.73536 | -40.80173 | 36918 ft | 478 kts | 39° |
| 2026-04-17 00:35 | -7.69426 | -40.76455 | 36925 ft | 478 kts | 39° |
| 2026-04-17 00:35 | -7.64479 | -40.71983 | 36926 ft | 477 kts | 39° |
| 2026-04-17 00:36 | -7.59557 | -40.67534 | 36934 ft | 477 kts | 39° |
| 2026-04-17 00:36 | -7.54617 | -40.63068 | 36937 ft | 477 kts | 39° |
| 2026-04-17 00:37 | -7.49665 | -40.58596 | 36935 ft | 477 kts | 39° |
| 2026-04-17 00:37 | -7.44728 | -40.54140 | 36944 ft | 476 kts | 38° |
| 2026-04-17 00:38 | -7.39819 | -40.49712 | 36944 ft | 476 kts | 39° |
| 2026-04-17 00:38 | -7.34887 | -40.45262 | 36944 ft | 476 kts | 38° |
| 2026-04-17 00:39 | -7.29959 | -40.40815 | 36944 ft | 475 kts | 38° |
| 2026-04-17 00:39 | -7.25030 | -40.36368 | 36945 ft | 475 kts | 38° |
| 2026-04-17 00:40 | -7.20101 | -40.31926 | 36945 ft | 473 kts | 38° |
| 2026-04-17 00:40 | -7.15185 | -40.27496 | 36944 ft | 474 kts | 38° |
| 2026-04-17 00:41 | -7.10315 | -40.23109 | 36943 ft | 473 kts | 38° |
| 2026-04-17 00:41 | -7.05394 | -40.18673 | 36942 ft | 473 kts | 38° |
| 2026-04-17 00:42 | -7.00485 | -40.14257 | 36938 ft | 473 kts | 38° |
| 2026-04-17 00:42 | -6.95583 | -40.09841 | 36938 ft | 470 kts | 39° |
| 2026-04-17 00:43 | -6.90738 | -40.05480 | 36933 ft | 469 kts | 39° |
| 2026-04-17 00:43 | -6.85857 | -40.01094 | 36929 ft | 470 kts | 39° |
| 2026-04-17 00:44 | -6.80980 | -39.96708 | 36927 ft | 470 kts | 39° |
| 2026-04-17 00:44 | -6.76135 | -39.92345 | 36930 ft | 470 kts | 39° |
| 2026-04-17 00:45 | -6.71261 | -39.87966 | 36926 ft | 470 kts | 39° |
| 2026-04-17 00:45 | -6.66375 | -39.83581 | 36918 ft | 470 kts | 39° |
| 2026-04-17 00:46 | -6.61494 | -39.79192 | 36919 ft | 470 kts | 39° |
| 2026-04-17 00:46 | -6.56626 | -39.74824 | 36920 ft | 471 kts | 39° |
| 2026-04-17 00:47 | -6.51735 | -39.70432 | 36919 ft | 470 kts | 39° |
| 2026-04-17 00:47 | -6.46847 | -39.66047 | 36917 ft | 470 kts | 39° |
| 2026-04-17 00:48 | -6.41950 | -39.61651 | 36924 ft | 472 kts | 39° |
| 2026-04-17 00:48 | -6.37041 | -39.57244 | 36911 ft | 473 kts | 39° |
| 2026-04-17 00:49 | -6.32166 | -39.52873 | 36914 ft | 473 kts | 39° |
| 2026-04-17 00:49 | -6.27240 | -39.48457 | 36912 ft | 473 kts | 39° |
| 2026-04-17 00:50 | -6.22351 | -39.44076 | 36912 ft | 473 kts | 39° |
| 2026-04-17 00:50 | -6.17459 | -39.39694 | 36915 ft | 473 kts | 39° |
| 2026-04-17 00:51 | -6.12527 | -39.35274 | 36910 ft | 473 kts | 39° |
| 2026-04-17 00:51 | -6.07639 | -39.30897 | 36911 ft | 473 kts | 39° |
| 2026-04-17 00:52 | -6.02727 | -39.26490 | 36910 ft | 473 kts | 39° |
| 2026-04-17 00:52 | -5.97803 | -39.22084 | 36912 ft | 473 kts | 39° |
| 2026-04-17 00:53 | -5.92912 | -39.17709 | 36908 ft | 473 kts | 39° |
| 2026-04-17 00:53 | -5.87989 | -39.13307 | 36912 ft | 472 kts | 39° |
| 2026-04-17 00:54 | -5.83088 | -39.08919 | 36907 ft | 473 kts | 39° |
| 2026-04-17 00:54 | -5.78191 | -39.04539 | 36909 ft | 473 kts | 39° |
| 2026-04-17 00:55 | -5.73263 | -39.00134 | 36905 ft | 473 kts | 39° |
| 2026-04-17 00:55 | -5.68342 | -38.95735 | 36905 ft | 473 kts | 39° |
| 2026-04-17 00:56 | -5.63429 | -38.91346 | 36906 ft | 473 kts | 39° |
| 2026-04-17 00:56 | -5.58539 | -38.86971 | 36903 ft | 471 kts | 39° |
| 2026-04-17 00:57 | -5.53631 | -38.82590 | 36905 ft | 471 kts | 39° |
| 2026-04-17 00:57 | -5.48724 | -38.78210 | 36905 ft | 471 kts | 39° |
| 2026-04-17 00:58 | -5.43853 | -38.73858 | 36904 ft | 471 kts | 39° |
| 2026-04-17 00:58 | -5.38947 | -38.69482 | 36905 ft | 471 kts | 39° |
| 2026-04-17 00:59 | -5.34033 | -38.65097 | 36901 ft | 470 kts | 39° |
| 2026-04-17 00:59 | -5.29175 | -38.60766 | 36903 ft | 469 kts | 39° |
| 2026-04-17 01:00 | -5.24278 | -38.56396 | 36903 ft | 469 kts | 39° |
| 2026-04-17 01:00 | -5.19402 | -38.52046 | 36905 ft | 470 kts | 39° |
| 2026-04-17 01:01 | -5.14525 | -38.47698 | 36903 ft | 470 kts | 39° |
| 2026-04-17 01:01 | -5.09640 | -38.43342 | 36902 ft | 470 kts | 39° |
| 2026-04-17 01:02 | -5.04773 | -38.39004 | 36903 ft | 468 kts | 39° |
| 2026-04-17 01:02 | -4.99883 | -38.34649 | 36899 ft | 468 kts | 39° |
| 2026-04-17 01:03 | -4.95017 | -38.30311 | 36898 ft | 468 kts | 39° |
| 2026-04-17 01:03 | -4.90176 | -38.26001 | 36901 ft | 468 kts | 39° |
| 2026-04-17 01:04 | -4.85304 | -38.21663 | 36901 ft | 468 kts | 39° |
| 2026-04-17 01:04 | -4.80434 | -38.17329 | 36896 ft | 467 kts | 39° |
| 2026-04-17 01:05 | -4.75584 | -38.13008 | 36899 ft | 465 kts | 40° |
| 2026-04-17 01:05 | -4.70749 | -38.08704 | 36900 ft | 465 kts | 40° |
| 2026-04-17 01:06 | -4.65907 | -38.04396 | 36899 ft | 465 kts | 40° |
| 2026-04-17 01:06 | -4.61062 | -38.00084 | 36896 ft | 465 kts | 40° |
| 2026-04-17 01:07 | -4.56219 | -37.95773 | 36897 ft | 465 kts | 40° |
| 2026-04-17 01:07 | -4.51374 | -37.91467 | 36896 ft | 466 kts | 40° |
| 2026-04-17 01:08 | -4.46548 | -37.87176 | 36893 ft | 462 kts | 40° |
| 2026-04-17 01:08 | -4.41763 | -37.82920 | 36899 ft | 463 kts | 40° |
| 2026-04-17 01:09 | -4.36951 | -37.78641 | 36890 ft | 463 kts | 40° |
| 2026-04-17 01:09 | -4.32138 | -37.74365 | 36890 ft | 463 kts | 40° |
| 2026-04-17 01:10 | -4.27319 | -37.70085 | 36890 ft | 463 kts | 40° |
| 2026-04-17 01:10 | -4.22495 | -37.65798 | 36889 ft | 463 kts | 40° |
| 2026-04-17 01:11 | -4.17702 | -37.61539 | 36890 ft | 460 kts | 40° |
| 2026-04-17 01:11 | -4.12905 | -37.57282 | 36895 ft | 461 kts | 40° |
| 2026-04-17 01:12 | -4.08112 | -37.53027 | 36894 ft | 461 kts | 40° |
| 2026-04-17 01:12 | -4.03311 | -37.48767 | 36892 ft | 461 kts | 40° |
| 2026-04-17 01:13 | -3.98520 | -37.44508 | 36893 ft | 461 kts | 40° |
| 2026-04-17 01:13 | -3.93718 | -37.40247 | 36893 ft | 461 kts | 40° |
| 2026-04-17 01:14 | -3.88953 | -37.36019 | 36894 ft | 460 kts | 40° |
| 2026-04-17 01:14 | -3.84162 | -37.31769 | 36895 ft | 460 kts | 40° |
| 2026-04-17 01:15 | -3.81774 | -37.29652 | 37101 ft | 456 kts | 40° |
| 2026-04-17 01:15 | -3.79411 | -37.27551 | 37343 ft | 453 kts | 40° |
| 2026-04-17 01:15 | -3.77057 | -37.25461 | 37605 ft | 450 kts | 40° |
| 2026-04-17 01:15 | -3.74716 | -37.23387 | 37867 ft | 446 kts | 40° |
| 2026-04-17 01:16 | -3.72399 | -37.21332 | 38122 ft | 443 kts | 40° |
| 2026-04-17 01:16 | -3.70102 | -37.19293 | 38390 ft | 440 kts | 40° |
| 2026-04-17 01:16 | -3.67825 | -37.17273 | 38648 ft | 436 kts | 39° |
| 2026-04-17 01:16 | -3.65564 | -37.15268 | 38870 ft | 432 kts | 39° |
| 2026-04-17 01:17 | -3.61040 | -37.11265 | 38908 ft | 437 kts | 40° |
| 2026-04-17 01:17 | -3.56453 | -37.07195 | 38914 ft | 443 kts | 40° |
| 2026-04-17 01:18 | -3.52606 | -37.03784 | 38939 ft | 447 kts | 40° |
| 2026-04-17 01:18 | -3.47929 | -36.99639 | 38962 ft | 451 kts | 40° |
| 2026-04-17 01:19 | -3.42431 | -36.94769 | 38884 ft | 457 kts | 40° |
| 2026-04-17 01:19 | -3.38449 | -36.91243 | 38880 ft | 456 kts | 40° |
| 2026-04-17 01:20 | -3.33694 | -36.87030 | 38902 ft | 456 kts | 40° |
| 2026-04-17 01:20 | -3.28968 | -36.82841 | 38896 ft | 456 kts | 40° |
| 2026-04-17 01:21 | -3.24183 | -36.78600 | 38894 ft | 456 kts | 40° |
| 2026-04-17 01:21 | -3.19440 | -36.74393 | 38890 ft | 456 kts | 40° |
| 2026-04-17 01:22 | -3.14667 | -36.70173 | 38902 ft | 457 kts | 40° |
| 2026-04-17 01:22 | -3.09907 | -36.65964 | 38892 ft | 458 kts | 40° |
| 2026-04-17 01:23 | -3.05148 | -36.61754 | 38888 ft | 455 kts | 40° |
| 2026-04-17 01:23 | -3.00384 | -36.57537 | 38896 ft | 454 kts | 40° |
| 2026-04-17 01:24 | -2.95650 | -36.53350 | 38902 ft | 455 kts | 40° |
| 2026-04-17 01:24 | -2.90927 | -36.49169 | 38894 ft | 455 kts | 40° |
| 2026-04-17 01:25 | -2.86189 | -36.44977 | 38891 ft | 455 kts | 40° |
| 2026-04-17 01:25 | -2.81445 | -36.40779 | 38904 ft | 455 kts | 40° |
| 2026-04-17 01:26 | -2.76716 | -36.36593 | 38898 ft | 455 kts | 40° |
| 2026-04-17 01:26 | -2.72056 | -36.32472 | 38885 ft | 441 kts | 40° |
| 2026-04-17 01:27 | -2.67477 | -36.28427 | 38897 ft | 439 kts | 40° |
| 2026-04-17 01:27 | -2.62918 | -36.24390 | 38896 ft | 438 kts | 41° |
| 2026-04-17 01:28 | -2.58343 | -36.20347 | 38902 ft | 437 kts | 41° |
| 2026-04-17 01:28 | -2.53788 | -36.16320 | 38915 ft | 438 kts | 41° |
| 2026-04-17 01:29 | -2.46924 | -36.10256 | 38904 ft | 440 kts | 41° |
| 2026-04-17 01:30 | -2.42345 | -36.06213 | 38906 ft | 439 kts | 42° |
| 2026-04-17 01:30 | -2.37775 | -36.02174 | 38901 ft | 438 kts | 42° |
| 2026-04-17 01:31 | -2.33223 | -35.98152 | 38896 ft | 437 kts | 41° |
| 2026-04-17 01:31 | -2.28640 | -35.94103 | 38905 ft | 437 kts | 41° |
| 2026-04-17 01:32 | -2.24074 | -35.90066 | 38914 ft | 439 kts | 41° |
| 2026-04-17 01:32 | -2.19496 | -35.86024 | 38906 ft | 439 kts | 42° |
| 2026-04-17 01:33 | -2.14914 | -35.81977 | 38903 ft | 440 kts | 42° |
| 2026-04-17 01:33 | -2.10326 | -35.77922 | 38907 ft | 439 kts | 42° |
| 2026-04-17 01:34 | -2.05736 | -35.73868 | 38906 ft | 440 kts | 41° |
| 2026-04-17 01:34 | -2.01171 | -35.69836 | 38908 ft | 441 kts | 41° |
| 2026-04-17 01:35 | -1.96551 | -35.65756 | 38910 ft | 441 kts | 41° |
| 2026-04-17 01:35 | -1.91945 | -35.61688 | 38909 ft | 442 kts | 41° |
| 2026-04-17 01:36 | -1.87351 | -35.57633 | 38902 ft | 442 kts | 41° |
| 2026-04-17 01:36 | -1.82704 | -35.53529 | 38901 ft | 447 kts | 41° |
| 2026-04-17 01:37 | -1.78015 | -35.49388 | 38912 ft | 451 kts | 41° |
| 2026-04-17 01:37 | -1.73111 | -35.45493 | 38925 ft | 451 kts | 31° |
| 2026-04-17 01:38 | -1.67607 | -35.42448 | 38897 ft | 453 kts | 28° |
| 2026-04-17 01:38 | -1.62096 | -35.39445 | 38900 ft | 452 kts | 29° |
| 2026-04-17 01:39 | -1.56587 | -35.36422 | 38895 ft | 452 kts | 29° |
| 2026-04-17 01:39 | -1.51063 | -35.33386 | 38898 ft | 452 kts | 29° |
| 2026-04-17 01:40 | -1.45556 | -35.30359 | 38900 ft | 452 kts | 29° |
| 2026-04-17 01:40 | -1.40029 | -35.27322 | 38898 ft | 452 kts | 30° |
| 2026-04-17 01:41 | -1.34506 | -35.24287 | 38891 ft | 452 kts | 30° |
| 2026-04-17 01:41 | -1.29012 | -35.21265 | 38901 ft | 453 kts | 30° |
| 2026-04-17 01:42 | -1.23458 | -35.18211 | 38898 ft | 454 kts | 30° |
| 2026-04-17 01:42 | -1.17939 | -35.15179 | 38905 ft | 455 kts | 30° |
| 2026-04-17 01:43 | -1.12397 | -35.12136 | 38911 ft | 456 kts | 29° |
| 2026-04-17 01:43 | -1.06818 | -35.09070 | 38899 ft | 456 kts | 29° |
| 2026-04-17 01:44 | -1.01267 | -35.06017 | 38907 ft | 457 kts | 29° |
| 2026-04-17 01:44 | -0.95674 | -35.02946 | 38901 ft | 457 kts | 30° |
| 2026-04-17 01:45 | -0.90129 | -34.99899 | 38899 ft | 457 kts | 29° |
| 2026-04-17 01:45 | -0.84521 | -34.96817 | 38905 ft | 457 kts | 29° |
| 2026-04-17 01:46 | -0.78982 | -34.93775 | 38899 ft | 457 kts | 29° |
| 2026-04-17 01:46 | -0.73381 | -34.90698 | 38897 ft | 457 kts | 29° |
| 2026-04-17 01:47 | -0.67815 | -34.87640 | 38906 ft | 457 kts | 29° |
| 2026-04-17 01:47 | -0.62247 | -34.84581 | 38910 ft | 457 kts | 29° |
| 2026-04-17 01:48 | -0.56686 | -34.81526 | 38905 ft | 457 kts | 29° |
| 2026-04-17 01:48 | -0.51096 | -34.78455 | 38905 ft | 457 kts | 29° |
| 2026-04-17 01:49 | -0.45535 | -34.75400 | 38894 ft | 457 kts | 29° |
| 2026-04-17 01:49 | -0.39968 | -34.72342 | 38901 ft | 457 kts | 29° |
| 2026-04-17 01:50 | -0.34438 | -34.69305 | 38894 ft | 455 kts | 29° |
| 2026-04-17 01:50 | -0.28871 | -34.66247 | 38900 ft | 455 kts | 29° |
| 2026-04-17 01:51 | -0.23331 | -34.63204 | 38899 ft | 455 kts | 29° |
| 2026-04-17 01:51 | -0.17781 | -34.60156 | 38898 ft | 454 kts | 29° |
| 2026-04-17 01:52 | -0.12265 | -34.57125 | 38896 ft | 454 kts | 29° |
| 2026-04-17 01:52 | -0.06692 | -34.54064 | 38897 ft | 454 kts | 29° |
| 2026-04-17 01:53 | -0.01173 | -34.51033 | 38902 ft | 454 kts | 29° |
| 2026-04-17 01:53 | 0.04378 | -34.47984 | 38898 ft | 454 kts | 29° |
| 2026-04-17 01:54 | 0.09880 | -34.44961 | 38898 ft | 453 kts | 29° |
| 2026-04-17 01:54 | 0.15414 | -34.41921 | 38895 ft | 454 kts | 29° |
| 2026-04-17 01:55 | 0.20958 | -34.38875 | 38893 ft | 454 kts | 29° |
| 2026-04-17 01:55 | 0.26503 | -34.35830 | 38903 ft | 453 kts | 29° |
| 2026-04-17 01:56 | 0.32002 | -34.32810 | 38908 ft | 454 kts | 29° |
| 2026-04-17 01:56 | 0.37548 | -34.29763 | 38905 ft | 456 kts | 29° |
| 2026-04-17 01:57 | 0.43143 | -34.26689 | 38898 ft | 457 kts | 29° |
| 2026-04-17 01:57 | 0.48738 | -34.23616 | 38897 ft | 457 kts | 29° |
| 2026-04-17 01:58 | 0.54303 | -34.20560 | 38892 ft | 457 kts | 29° |
| 2026-04-17 01:58 | 0.59848 | -34.17513 | 38892 ft | 457 kts | 29° |
| 2026-04-17 01:59 | 0.65438 | -34.14442 | 38896 ft | 456 kts | 29° |
| 2026-04-17 01:59 | 0.70988 | -34.11394 | 38900 ft | 456 kts | 29° |
| 2026-04-17 02:00 | 0.75594 | -34.08863 | 38895 ft | 455 kts | 29° |
| 2026-04-17 02:00 | 0.81162 | -34.05802 | 38901 ft | 455 kts | 30° |
| 2026-04-17 02:01 | 0.86705 | -34.02758 | 38907 ft | 455 kts | 29° |
| 2026-04-17 02:01 | 0.92239 | -33.99723 | 38895 ft | 455 kts | 29° |
| 2026-04-17 02:02 | 0.97773 | -33.96682 | 38897 ft | 455 kts | 30° |
| 2026-04-17 02:02 | 1.03320 | -33.93640 | 38896 ft | 456 kts | 29° |
| 2026-04-17 02:03 | 1.08875 | -33.90591 | 38900 ft | 456 kts | 30° |
| 2026-04-17 02:03 | 1.14429 | -33.87541 | 38901 ft | 456 kts | 29° |
| 2026-04-17 02:04 | 1.20022 | -33.84472 | 38895 ft | 456 kts | 29° |
| 2026-04-17 02:04 | 1.25568 | -33.81428 | 38899 ft | 456 kts | 30° |
| 2026-04-17 02:05 | 1.31115 | -33.78380 | 38890 ft | 456 kts | 30° |
| 2026-04-17 02:05 | 1.36662 | -33.75337 | 38891 ft | 455 kts | 30° |
| 2026-04-17 02:06 | 1.42199 | -33.72296 | 38901 ft | 455 kts | 30° |
| 2026-04-17 02:06 | 1.47775 | -33.69235 | 38886 ft | 455 kts | 29° |
| 2026-04-17 02:07 | 1.53332 | -33.66184 | 38898 ft | 454 kts | 29° |
| 2026-04-17 02:07 | 1.58863 | -33.63144 | 38898 ft | 454 kts | 29° |
| 2026-04-17 02:08 | 1.64380 | -33.60113 | 38899 ft | 456 kts | 28° |
| 2026-04-17 02:08 | 1.69991 | -33.57032 | 38896 ft | 458 kts | 28° |
| 2026-04-17 02:09 | 1.75585 | -33.53958 | 38889 ft | 458 kts | 29° |
| 2026-04-17 02:09 | 1.81181 | -33.50885 | 38880 ft | 458 kts | 29° |
| 2026-04-17 02:10 | 1.86729 | -33.47837 | 38885 ft | 457 kts | 29° |
| 2026-04-17 02:10 | 1.92325 | -33.44761 | 38888 ft | 455 kts | 28° |
| 2026-04-17 02:11 | 1.97876 | -33.41711 | 38905 ft | 456 kts | 28° |
| 2026-04-17 02:11 | 2.03430 | -33.38657 | 38894 ft | 457 kts | 28° |
| 2026-04-17 02:12 | 2.08994 | -33.35601 | 38881 ft | 458 kts | 28° |
| 2026-04-17 02:12 | 2.14565 | -33.32541 | 38883 ft | 457 kts | 28° |
| 2026-04-17 02:13 | 2.20127 | -33.29481 | 38888 ft | 456 kts | 28° |
| 2026-04-17 02:13 | 2.25688 | -33.26425 | 38883 ft | 455 kts | 28° |
| 2026-04-17 02:14 | 2.31229 | -33.23381 | 38885 ft | 454 kts | 28° |
| 2026-04-17 02:14 | 2.36766 | -33.20333 | 38894 ft | 456 kts | 28° |
| 2026-04-17 02:15 | 2.42333 | -33.17272 | 38896 ft | 457 kts | 28° |
| 2026-04-17 02:15 | 2.47909 | -33.14208 | 38895 ft | 458 kts | 28° |
| 2026-04-17 02:16 | 2.53479 | -33.11142 | 38882 ft | 457 kts | 28° |
| 2026-04-17 02:16 | 2.59064 | -33.08070 | 38885 ft | 455 kts | 28° |
| 2026-04-17 02:17 | 2.64587 | -33.05033 | 38887 ft | 454 kts | 28° |
| 2026-04-17 02:17 | 2.70121 | -33.01990 | 38887 ft | 453 kts | 28° |
| 2026-04-17 02:18 | 2.75663 | -32.98940 | 38902 ft | 455 kts | 27° |
| 2026-04-17 02:18 | 2.81222 | -32.95882 | 38882 ft | 457 kts | 28° |
| 2026-04-17 02:19 | 2.86782 | -32.92823 | 38884 ft | 458 kts | 28° |
| 2026-04-17 02:19 | 2.92381 | -32.89740 | 38882 ft | 456 kts | 28° |
| 2026-04-17 02:20 | 2.97937 | -32.86680 | 38886 ft | 455 kts | 28° |
| 2026-04-17 02:20 | 3.03461 | -32.83641 | 38886 ft | 454 kts | 28° |
| 2026-04-17 02:21 | 3.08993 | -32.80591 | 38884 ft | 454 kts | 27° |
| 2026-04-17 02:21 | 3.14551 | -32.77532 | 38886 ft | 454 kts | 27° |
| 2026-04-17 02:22 | 3.20045 | -32.74507 | 38888 ft | 454 kts | 27° |
| 2026-04-17 02:22 | 3.25589 | -32.71451 | 38883 ft | 454 kts | 28° |
| 2026-04-17 02:23 | 3.31110 | -32.68412 | 38884 ft | 454 kts | 28° |
| 2026-04-17 02:23 | 3.36634 | -32.65370 | 38888 ft | 454 kts | 27° |
| 2026-04-17 02:24 | 3.42154 | -32.62326 | 38887 ft | 454 kts | 27° |
| 2026-04-17 02:24 | 3.47706 | -32.59267 | 38886 ft | 453 kts | 28° |
| 2026-04-17 02:25 | 3.53204 | -32.56237 | 38885 ft | 454 kts | 28° |
| 2026-04-17 02:25 | 3.58770 | -32.53169 | 38885 ft | 454 kts | 28° |
| 2026-04-17 02:26 | 3.64294 | -32.50126 | 38884 ft | 454 kts | 28° |
| 2026-04-17 02:26 | 3.69820 | -32.47080 | 38889 ft | 454 kts | 28° |
| 2026-04-17 02:27 | 3.75361 | -32.44021 | 38887 ft | 454 kts | 28° |
| 2026-04-17 02:27 | 3.80891 | -32.40976 | 38887 ft | 454 kts | 28° |
| 2026-04-17 02:28 | 3.86434 | -32.37917 | 38885 ft | 454 kts | 28° |
| 2026-04-17 02:28 | 3.91951 | -32.34873 | 38887 ft | 454 kts | 28° |
| 2026-04-17 02:29 | 3.97508 | -32.31807 | 38889 ft | 454 kts | 28° |
| 2026-04-17 02:29 | 4.03027 | -32.28760 | 38889 ft | 454 kts | 28° |
| 2026-04-17 02:30 | 4.08571 | -32.25703 | 38888 ft | 454 kts | 28° |
| 2026-04-17 02:30 | 4.14086 | -32.22657 | 38889 ft | 454 kts | 28° |
| 2026-04-17 02:31 | 4.19613 | -32.19605 | 38889 ft | 454 kts | 28° |
| 2026-04-17 02:31 | 4.25149 | -32.16551 | 38887 ft | 456 kts | 28° |
| 2026-04-17 02:32 | 4.30703 | -32.13483 | 38886 ft | 458 kts | 28° |
| 2026-04-17 02:32 | 4.36279 | -32.10400 | 38889 ft | 458 kts | 27° |
| 2026-04-17 02:33 | 4.41857 | -32.07319 | 38889 ft | 457 kts | 28° |
| 2026-04-17 02:33 | 4.47432 | -32.04240 | 38888 ft | 456 kts | 28° |
| 2026-04-17 02:34 | 4.52980 | -32.01173 | 38894 ft | 457 kts | 28° |
| 2026-04-17 02:34 | 4.58543 | -31.98098 | 38895 ft | 457 kts | 28° |
| 2026-04-17 02:35 | 4.64118 | -31.95013 | 38894 ft | 457 kts | 28° |
| 2026-04-17 02:35 | 4.72492 | -31.90386 | 38885 ft | 457 kts | 27° |
| 2026-04-17 02:36 | 4.78033 | -31.87323 | 38891 ft | 455 kts | 27° |
| 2026-04-17 02:36 | 4.83559 | -31.84264 | 38893 ft | 454 kts | 28° |
| 2026-04-17 02:37 | 4.89103 | -31.81196 | 38899 ft | 457 kts | 27° |
| 2026-04-17 02:37 | 4.94681 | -31.78109 | 38894 ft | 459 kts | 27° |
| 2026-04-17 02:38 | 5.00273 | -31.75013 | 38896 ft | 460 kts | 27° |
| 2026-04-17 02:38 | 5.05880 | -31.71908 | 38891 ft | 459 kts | 27° |
| 2026-04-17 02:39 | 5.11456 | -31.68824 | 38890 ft | 458 kts | 27° |
| 2026-04-17 02:39 | 5.17034 | -31.65732 | 38895 ft | 457 kts | 28° |
| 2026-04-17 02:40 | 5.22638 | -31.62627 | 38897 ft | 458 kts | 27° |
| 2026-04-17 02:40 | 5.28199 | -31.59503 | 38899 ft | 459 kts | 28° |
| 2026-04-17 02:41 | 5.33770 | -31.56368 | 38896 ft | 460 kts | 27° |
| 2026-04-17 02:41 | 5.39353 | -31.53230 | 38895 ft | 460 kts | 28° |
| 2026-04-17 02:42 | 5.44907 | -31.50107 | 38899 ft | 460 kts | 27° |
| 2026-04-17 02:42 | 5.50520 | -31.46950 | 38899 ft | 460 kts | 27° |
| 2026-04-17 02:43 | 5.56102 | -31.43812 | 38897 ft | 461 kts | 27° |
| 2026-04-17 02:43 | 5.61684 | -31.40671 | 38902 ft | 462 kts | 27° |
| 2026-04-17 02:44 | 5.66380 | -31.38030 | 38899 ft | 462 kts | 27° |
| 2026-04-17 02:44 | 5.72001 | -31.34867 | 38899 ft | 462 kts | 27° |
| 2026-04-17 02:45 | 5.77609 | -31.31710 | 38898 ft | 462 kts | 27° |
| 2026-04-17 02:45 | 5.83213 | -31.28556 | 38900 ft | 462 kts | 27° |
| 2026-04-17 02:46 | 5.88823 | -31.25398 | 38900 ft | 463 kts | 27° |
| 2026-04-17 02:46 | 5.94461 | -31.22222 | 38901 ft | 463 kts | 27° |
| 2026-04-17 02:47 | 6.00045 | -31.19076 | 38899 ft | 463 kts | 27° |
| 2026-04-17 02:47 | 6.05661 | -31.15911 | 38899 ft | 463 kts | 27° |
| 2026-04-17 02:48 | 6.11291 | -31.12738 | 38902 ft | 463 kts | 27° |
| 2026-04-17 02:48 | 6.16918 | -31.09566 | 38902 ft | 463 kts | 27° |
| 2026-04-17 02:49 | 6.22532 | -31.06400 | 38904 ft | 463 kts | 27° |
| 2026-04-17 02:49 | 6.28135 | -31.03239 | 38905 ft | 463 kts | 27° |
| 2026-04-17 02:50 | 6.33746 | -31.00073 | 38901 ft | 463 kts | 27° |
| 2026-04-17 02:50 | 6.39368 | -30.96901 | 38903 ft | 463 kts | 27° |
| 2026-04-17 02:51 | 6.44972 | -30.93737 | 38903 ft | 463 kts | 27° |
| 2026-04-17 02:51 | 6.50584 | -30.90569 | 38902 ft | 463 kts | 27° |
| 2026-04-17 02:52 | 6.56225 | -30.87382 | 38902 ft | 462 kts | 27° |
| 2026-04-17 02:52 | 6.61818 | -30.84224 | 38902 ft | 463 kts | 27° |
| 2026-04-17 02:53 | 6.67422 | -30.81057 | 38905 ft | 462 kts | 27° |
| 2026-04-17 02:53 | 6.73057 | -30.77872 | 38905 ft | 462 kts | 27° |
| 2026-04-17 02:54 | 6.78665 | -30.74701 | 38908 ft | 463 kts | 27° |
| 2026-04-17 02:54 | 6.84271 | -30.71531 | 38908 ft | 463 kts | 27° |
| 2026-04-17 02:55 | 6.89878 | -30.68358 | 38908 ft | 464 kts | 26° |
| 2026-04-17 02:55 | 6.95479 | -30.65189 | 38910 ft | 464 kts | 26° |
| 2026-04-17 02:56 | 7.01123 | -30.61995 | 38908 ft | 464 kts | 26° |
| 2026-04-17 02:56 | 7.06743 | -30.58814 | 38907 ft | 464 kts | 26° |
| 2026-04-17 02:57 | 7.12359 | -30.55634 | 38910 ft | 464 kts | 26° |
| 2026-04-17 02:57 | 7.17987 | -30.52446 | 38910 ft | 464 kts | 26° |
| 2026-04-17 02:58 | 7.23605 | -30.49262 | 38910 ft | 465 kts | 26° |
| 2026-04-17 02:58 | 7.29240 | -30.46068 | 38911 ft | 465 kts | 26° |
| 2026-04-17 02:59 | 7.34908 | -30.42855 | 38910 ft | 465 kts | 26° |
| 2026-04-17 02:59 | 7.40540 | -30.39661 | 38913 ft | 465 kts | 26° |
| 2026-04-17 03:00 | 7.46165 | -30.36470 | 38914 ft | 464 kts | 26° |
| 2026-04-17 03:00 | 7.51802 | -30.33272 | 38914 ft | 464 kts | 26° |
| 2026-04-17 03:01 | 7.57434 | -30.30075 | 38909 ft | 464 kts | 26° |
| 2026-04-17 03:01 | 7.63051 | -30.26885 | 38913 ft | 464 kts | 26° |
| 2026-04-17 03:02 | 7.68681 | -30.23687 | 38913 ft | 464 kts | 26° |
| 2026-04-17 03:02 | 7.74299 | -30.20496 | 38913 ft | 464 kts | 26° |
| 2026-04-17 03:03 | 7.79909 | -30.17307 | 38910 ft | 464 kts | 26° |
| 2026-04-17 03:03 | 7.85538 | -30.14107 | 38910 ft | 464 kts | 26° |
| 2026-04-17 03:04 | 7.91191 | -30.10892 | 38913 ft | 465 kts | 26° |
| 2026-04-17 03:04 | 7.96802 | -30.07700 | 38912 ft | 464 kts | 26° |
| 2026-04-17 03:05 | 8.02410 | -30.04509 | 38913 ft | 464 kts | 26° |
| 2026-04-17 03:05 | 8.08021 | -30.01315 | 38912 ft | 464 kts | 26° |
| 2026-04-17 03:06 | 8.13670 | -29.98099 | 38910 ft | 464 kts | 26° |
| 2026-04-17 03:06 | 8.19285 | -29.94900 | 38910 ft | 464 kts | 26° |
| 2026-04-17 03:07 | 8.24905 | -29.91697 | 38910 ft | 464 kts | 25° |
| 2026-04-17 03:07 | 8.30520 | -29.88498 | 38916 ft | 464 kts | 25° |
| 2026-04-17 03:08 | 8.36149 | -29.85288 | 38915 ft | 464 kts | 25° |
| 2026-04-17 03:08 | 8.41763 | -29.82087 | 38916 ft | 463 kts | 25° |
| 2026-04-17 03:09 | 8.47364 | -29.78891 | 38915 ft | 462 kts | 25° |
| 2026-04-17 03:09 | 8.52955 | -29.75699 | 38917 ft | 462 kts | 25° |
| 2026-04-17 03:10 | 8.58572 | -29.72491 | 38917 ft | 464 kts | 25° |
| 2026-04-17 03:10 | 8.64164 | -29.69298 | 38920 ft | 464 kts | 25° |
| 2026-04-17 03:11 | 8.69773 | -29.66094 | 38919 ft | 463 kts | 25° |
| 2026-04-17 03:11 | 8.75409 | -29.62872 | 38918 ft | 463 kts | 25° |
| 2026-04-17 03:12 | 8.81007 | -29.59672 | 38921 ft | 464 kts | 25° |
| 2026-04-17 03:12 | 8.86614 | -29.56465 | 38921 ft | 464 kts | 25° |
| 2026-04-17 03:13 | 8.92217 | -29.53258 | 38919 ft | 462 kts | 25° |
| 2026-04-17 03:13 | 8.97799 | -29.50062 | 38923 ft | 461 kts | 25° |
| 2026-04-17 03:14 | 9.03420 | -29.46845 | 38923 ft | 462 kts | 25° |
| 2026-04-17 03:14 | 9.08984 | -29.43658 | 38921 ft | 462 kts | 25° |
| 2026-04-17 03:15 | 9.14597 | -29.40442 | 38924 ft | 462 kts | 25° |
| 2026-04-17 03:15 | 9.20187 | -29.37238 | 38923 ft | 462 kts | 25° |
| 2026-04-17 03:16 | 9.25782 | -29.34031 | 38923 ft | 463 kts | 25° |
| 2026-04-17 03:16 | 9.31385 | -29.30816 | 38923 ft | 463 kts | 25° |
| 2026-04-17 03:17 | 9.36955 | -29.27620 | 38924 ft | 463 kts | 25° |
| 2026-04-17 03:17 | 9.42564 | -29.24400 | 38929 ft | 463 kts | 25° |
| 2026-04-17 03:18 | 9.48196 | -29.21166 | 38927 ft | 463 kts | 25° |
| 2026-04-17 03:18 | 9.53784 | -29.17956 | 38930 ft | 463 kts | 25° |
| 2026-04-17 03:19 | 9.59394 | -29.14732 | 38929 ft | 463 kts | 25° |
| 2026-04-17 03:19 | 9.65018 | -29.11499 | 38929 ft | 463 kts | 25° |
| 2026-04-17 03:20 | 9.70608 | -29.08283 | 38932 ft | 463 kts | 25° |
| 2026-04-17 03:20 | 9.76213 | -29.05059 | 38932 ft | 463 kts | 25° |
| 2026-04-17 03:21 | 9.81801 | -29.01842 | 38930 ft | 463 kts | 25° |
| 2026-04-17 03:21 | 9.87401 | -28.98617 | 38930 ft | 463 kts | 25° |
| 2026-04-17 03:22 | 9.93011 | -28.95385 | 38933 ft | 464 kts | 24° |
| 2026-04-17 03:22 | 9.98631 | -28.92146 | 38933 ft | 466 kts | 24° |
| 2026-04-17 03:23 | 10.04291 | -28.88882 | 38930 ft | 466 kts | 24° |
| 2026-04-17 03:23 | 10.09913 | -28.85640 | 38929 ft | 466 kts | 24° |
| 2026-04-17 03:24 | 10.15541 | -28.82392 | 38932 ft | 465 kts | 24° |
| 2026-04-17 03:24 | 10.21177 | -28.79139 | 38932 ft | 465 kts | 24° |
| 2026-04-17 03:25 | 10.26783 | -28.75902 | 38932 ft | 466 kts | 24° |
| 2026-04-17 03:25 | 10.32401 | -28.72654 | 38931 ft | 465 kts | 24° |
| 2026-04-17 03:26 | 10.38043 | -28.69394 | 38932 ft | 465 kts | 24° |
| 2026-04-17 03:26 | 10.43665 | -28.66143 | 38932 ft | 465 kts | 24° |
| 2026-04-17 03:27 | 10.49259 | -28.62907 | 38935 ft | 463 kts | 24° |
| 2026-04-17 03:27 | 10.54869 | -28.59661 | 38936 ft | 464 kts | 24° |
| 2026-04-17 03:28 | 10.60476 | -28.56416 | 38935 ft | 464 kts | 24° |
| 2026-04-17 03:28 | 10.65141 | -28.53713 | 38936 ft | 465 kts | 24° |
| 2026-04-17 03:29 | 10.70795 | -28.50438 | 38935 ft | 466 kts | 24° |
| 2026-04-17 03:29 | 10.76434 | -28.47169 | 38937 ft | 466 kts | 24° |
| 2026-04-17 03:30 | 10.82046 | -28.43914 | 38935 ft | 466 kts | 24° |
| 2026-04-17 03:30 | 10.87679 | -28.40646 | 38935 ft | 466 kts | 24° |
| 2026-04-17 03:31 | 10.93300 | -28.37384 | 38937 ft | 466 kts | 24° |
| 2026-04-17 03:31 | 10.98935 | -28.34112 | 38934 ft | 467 kts | 24° |
| 2026-04-17 03:32 | 11.04562 | -28.30843 | 38938 ft | 467 kts | 24° |
| 2026-04-17 03:32 | 11.10207 | -28.27562 | 38940 ft | 468 kts | 24° |
| 2026-04-17 03:33 | 11.15849 | -28.24281 | 38935 ft | 467 kts | 24° |
| 2026-04-17 03:33 | 11.21504 | -28.20992 | 38934 ft | 467 kts | 24° |
| 2026-04-17 03:34 | 11.27184 | -28.17686 | 38940 ft | 467 kts | 24° |
| 2026-04-17 03:34 | 11.32833 | -28.14397 | 38935 ft | 469 kts | 24° |
| 2026-04-17 03:35 | 11.38492 | -28.11100 | 38938 ft | 468 kts | 24° |
| 2026-04-17 03:35 | 11.44144 | -28.07807 | 38947 ft | 468 kts | 24° |
| 2026-04-17 03:36 | 11.52624 | -28.02862 | 38941 ft | 468 kts | 24° |
| 2026-04-17 03:37 | 11.58268 | -27.99569 | 38945 ft | 468 kts | 24° |
| 2026-04-17 03:37 | 11.63917 | -27.96271 | 38943 ft | 468 kts | 24° |
| 2026-04-17 03:38 | 11.69583 | -27.92962 | 38945 ft | 468 kts | 24° |
| 2026-04-17 03:38 | 11.75237 | -27.89658 | 38941 ft | 468 kts | 24° |
| 2026-04-17 03:39 | 11.80870 | -27.86366 | 38944 ft | 468 kts | 24° |
| 2026-04-17 03:39 | 11.86508 | -27.83069 | 38945 ft | 468 kts | 24° |
| 2026-04-17 03:40 | 11.92176 | -27.79752 | 38943 ft | 468 kts | 24° |
| 2026-04-17 03:40 | 11.97830 | -27.76441 | 38945 ft | 467 kts | 24° |
| 2026-04-17 03:41 | 12.03452 | -27.73148 | 38946 ft | 467 kts | 24° |
| 2026-04-17 03:41 | 12.09099 | -27.69840 | 38945 ft | 467 kts | 24° |
| 2026-04-17 03:42 | 12.14694 | -27.66560 | 38944 ft | 467 kts | 24° |
| 2026-04-17 03:42 | 12.20345 | -27.63245 | 38943 ft | 467 kts | 24° |
| 2026-04-17 03:43 | 12.25984 | -27.59936 | 38943 ft | 467 kts | 24° |
| 2026-04-17 03:43 | 12.31613 | -27.56631 | 38943 ft | 467 kts | 24° |
| 2026-04-17 03:44 | 12.37234 | -27.53328 | 38941 ft | 467 kts | 24° |
| 2026-04-17 03:44 | 12.42871 | -27.50016 | 38947 ft | 467 kts | 24° |
| 2026-04-17 03:45 | 12.48534 | -27.46686 | 38946 ft | 467 kts | 24° |
| 2026-04-17 03:45 | 12.54156 | -27.43378 | 38945 ft | 467 kts | 24° |
| 2026-04-17 03:46 | 12.59780 | -27.40068 | 38948 ft | 467 kts | 24° |
| 2026-04-17 03:46 | 12.65415 | -27.36749 | 38948 ft | 467 kts | 24° |
| 2026-04-17 03:47 | 12.71035 | -27.33437 | 38937 ft | 467 kts | 24° |
| 2026-04-17 03:47 | 12.76654 | -27.30125 | 38943 ft | 467 kts | 24° |
| 2026-04-17 03:48 | 12.82272 | -27.26811 | 38949 ft | 467 kts | 24° |
| 2026-04-17 03:48 | 12.87924 | -27.23475 | 38949 ft | 467 kts | 24° |
| 2026-04-17 03:49 | 12.93542 | -27.20158 | 38951 ft | 467 kts | 24° |
| 2026-04-17 03:49 | 12.99150 | -27.16845 | 38947 ft | 466 kts | 24° |
| 2026-04-17 03:50 | 13.04770 | -27.13523 | 38949 ft | 466 kts | 24° |
| 2026-04-17 03:50 | 13.10378 | -27.10207 | 38962 ft | 465 kts | 24° |
| 2026-04-17 03:51 | 13.15973 | -27.06896 | 38948 ft | 466 kts | 24° |
| 2026-04-17 03:51 | 13.21163 | -27.02861 | 38976 ft | 480 kts | 42° |
| 2026-04-17 03:52 | 13.25582 | -26.97641 | 38931 ft | 482 kts | 44° |
| 2026-04-17 03:52 | 13.29963 | -26.92456 | 38944 ft | 482 kts | 44° |
| 2026-04-17 03:53 | 13.34361 | -26.87302 | 38948 ft | 482 kts | 43° |
| 2026-04-17 03:53 | 13.38786 | -26.82126 | 38942 ft | 483 kts | 44° |
| 2026-04-17 03:54 | 13.43221 | -26.76936 | 38948 ft | 485 kts | 44° |
| 2026-04-17 03:54 | 13.47687 | -26.71706 | 38946 ft | 485 kts | 44° |
| 2026-04-17 03:55 | 13.52136 | -26.66493 | 38951 ft | 485 kts | 44° |
| 2026-04-17 03:55 | 13.56564 | -26.61302 | 38954 ft | 485 kts | 44° |
| 2026-04-17 03:56 | 13.61031 | -26.56061 | 38948 ft | 485 kts | 44° |
| 2026-04-17 03:56 | 13.65485 | -26.50835 | 38954 ft | 487 kts | 44° |
| 2026-04-17 03:57 | 13.69919 | -26.45626 | 38954 ft | 486 kts | 44° |
| 2026-04-17 03:57 | 13.74397 | -26.40363 | 38946 ft | 486 kts | 44° |
| 2026-04-17 03:58 | 13.78852 | -26.35124 | 38946 ft | 487 kts | 44° |
| 2026-04-17 03:58 | 13.83283 | -26.29910 | 38949 ft | 487 kts | 44° |
| 2026-04-17 03:59 | 13.87752 | -26.24647 | 38949 ft | 487 kts | 44° |
| 2026-04-17 03:59 | 13.92209 | -26.19396 | 38948 ft | 487 kts | 44° |
| 2026-04-17 04:00 | 13.96663 | -26.14145 | 38949 ft | 487 kts | 44° |
| 2026-04-17 04:00 | 14.01107 | -26.08902 | 38951 ft | 487 kts | 44° |
| 2026-04-17 04:01 | 14.05558 | -26.03648 | 38949 ft | 487 kts | 44° |
| 2026-04-17 04:01 | 14.10024 | -25.98372 | 38947 ft | 487 kts | 44° |
| 2026-04-17 04:02 | 14.14480 | -25.93103 | 38948 ft | 488 kts | 43° |
| 2026-04-17 04:02 | 14.18925 | -25.87845 | 38948 ft | 487 kts | 43° |
| 2026-04-17 04:03 | 14.23376 | -25.82579 | 38948 ft | 487 kts | 43° |
| 2026-04-17 04:03 | 14.27826 | -25.77309 | 38949 ft | 487 kts | 43° |
| 2026-04-17 04:04 | 14.32272 | -25.72040 | 38948 ft | 487 kts | 43° |
| 2026-04-17 04:04 | 14.36721 | -25.66764 | 38949 ft | 487 kts | 43° |
| 2026-04-17 04:05 | 14.41199 | -25.61449 | 38941 ft | 488 kts | 43° |
| 2026-04-17 04:05 | 14.45616 | -25.56205 | 38950 ft | 487 kts | 43° |
| 2026-04-17 04:06 | 14.50063 | -25.50920 | 38948 ft | 487 kts | 43° |
| 2026-04-17 04:06 | 14.54526 | -25.45614 | 38948 ft | 488 kts | 43° |
| 2026-04-17 04:07 | 14.58980 | -25.40313 | 38948 ft | 488 kts | 43° |
| 2026-04-17 04:07 | 14.63407 | -25.35043 | 38948 ft | 488 kts | 43° |
| 2026-04-17 04:08 | 14.67857 | -25.29741 | 38948 ft | 488 kts | 43° |
| 2026-04-17 04:08 | 14.72308 | -25.24434 | 38945 ft | 488 kts | 43° |
| 2026-04-17 04:09 | 14.76766 | -25.19116 | 38946 ft | 488 kts | 43° |
| 2026-04-17 04:09 | 14.81216 | -25.13803 | 38945 ft | 488 kts | 43° |
| 2026-04-17 04:10 | 14.85657 | -25.08498 | 38948 ft | 488 kts | 43° |
| 2026-04-17 04:10 | 14.90108 | -25.03177 | 38933 ft | 490 kts | 43° |
| 2026-04-17 04:11 | 14.94571 | -24.97838 | 38944 ft | 491 kts | 43° |
| 2026-04-17 04:11 | 14.99035 | -24.92493 | 38944 ft | 491 kts | 43° |
| 2026-04-17 04:12 | 15.02741 | -24.88053 | 38942 ft | 491 kts | 43° |
| 2026-04-17 04:12 | 15.07931 | -24.81832 | 38948 ft | 491 kts | 43° |
| 2026-04-17 04:13 | 15.11662 | -24.77357 | 38948 ft | 491 kts | 43° |
| 2026-04-17 04:13 | 15.16120 | -24.72006 | 38953 ft | 491 kts | 43° |
| 2026-04-17 04:14 | 15.20573 | -24.66656 | 38949 ft | 490 kts | 43° |
| 2026-04-17 04:14 | 15.25019 | -24.61311 | 38951 ft | 490 kts | 43° |
| 2026-04-17 04:15 | 15.29455 | -24.55978 | 38968 ft | 493 kts | 43° |
| 2026-04-17 04:15 | 15.33938 | -24.50581 | 38950 ft | 494 kts | 43° |
| 2026-04-17 04:16 | 15.38425 | -24.45174 | 38868 ft | 493 kts | 43° |
| 2026-04-17 04:16 | 15.40654 | -24.42487 | 38371 ft | 488 kts | 43° |
| 2026-04-17 04:16 | 15.42838 | -24.39850 | 37889 ft | 482 kts | 43° |
| 2026-04-17 04:16 | 15.45040 | -24.37201 | 37249 ft | 480 kts | 43° |
| 2026-04-17 04:17 | 15.47216 | -24.34583 | 36568 ft | 481 kts | 43° |
| 2026-04-17 04:17 | 15.49402 | -24.31953 | 35957 ft | 481 kts | 43° |
| 2026-04-17 04:17 | 15.51598 | -24.29310 | 35280 ft | 484 kts | 43° |
| 2026-04-17 04:17 | 15.53805 | -24.26653 | 34653 ft | 486 kts | 43° |
| 2026-04-17 04:18 | 15.56022 | -24.23984 | 33989 ft | 489 kts | 43° |
| 2026-04-17 04:18 | 15.58243 | -24.21311 | 33343 ft | 499 kts | 43° |
| 2026-04-17 04:18 | 15.60541 | -24.18550 | 32670 ft | 511 kts | 43° |
| 2026-04-17 04:18 | 15.62866 | -24.15745 | 31992 ft | 510 kts | 43° |
| 2026-04-17 04:19 | 15.65175 | -24.12953 | 31288 ft | 509 kts | 43° |
| 2026-04-17 04:19 | 15.67448 | -24.10207 | 30657 ft | 505 kts | 43° |
| 2026-04-17 04:19 | 15.69737 | -24.07445 | 29952 ft | 503 kts | 43° |
| 2026-04-17 04:19 | 15.72011 | -24.04703 | 29327 ft | 496 kts | 43° |
| 2026-04-17 04:20 | 15.74253 | -24.01996 | 28631 ft | 491 kts | 43° |
| 2026-04-17 04:20 | 15.76473 | -23.99317 | 28004 ft | 485 kts | 44° |
| 2026-04-17 04:20 | 15.78668 | -23.96669 | 27362 ft | 480 kts | 44° |
| 2026-04-17 04:20 | 15.80839 | -23.94050 | 26708 ft | 476 kts | 44° |
| 2026-04-17 04:21 | 15.82987 | -23.91458 | 26097 ft | 470 kts | 45° |
| 2026-04-17 04:21 | 15.85110 | -23.88898 | 25473 ft | 465 kts | 45° |
| 2026-04-17 04:21 | 15.87210 | -23.86363 | 24863 ft | 461 kts | 45° |
| 2026-04-17 04:21 | 15.89291 | -23.83850 | 24255 ft | 456 kts | 46° |
| 2026-04-17 04:22 | 15.91350 | -23.81364 | 23652 ft | 451 kts | 46° |
| 2026-04-17 04:22 | 15.93359 | -23.78937 | 23024 ft | 445 kts | 46° |
| 2026-04-17 04:22 | 15.95359 | -23.76520 | 22471 ft | 438 kts | 46° |
| 2026-04-17 04:22 | 15.97335 | -23.74130 | 21896 ft | 434 kts | 47° |
| 2026-04-17 04:23 | 15.99297 | -23.71758 | 21319 ft | 430 kts | 47° |
| 2026-04-17 04:23 | 16.01242 | -23.69407 | 20766 ft | 427 kts | 47° |
| 2026-04-17 04:23 | 16.03175 | -23.67071 | 20172 ft | 424 kts | 47° |
| 2026-04-17 04:23 | 16.05088 | -23.64756 | 19625 ft | 419 kts | 47° |
| 2026-04-17 04:24 | 16.06988 | -23.62458 | 19070 ft | 415 kts | 48° |
| 2026-04-17 04:24 | 16.08845 | -23.60212 | 18528 ft | 410 kts | 48° |
| 2026-04-17 04:24 | 16.10700 | -23.57968 | 17951 ft | 405 kts | 48° |
| 2026-04-17 04:24 | 16.12511 | -23.55776 | 17446 ft | 398 kts | 49° |
| 2026-04-17 04:25 | 16.14314 | -23.53591 | 16917 ft | 394 kts | 49° |
| 2026-04-17 04:25 | 16.16073 | -23.51463 | 16407 ft | 389 kts | 49° |
| 2026-04-17 04:25 | 16.17837 | -23.49326 | 15893 ft | 385 kts | 49° |
| 2026-04-17 04:25 | 16.19555 | -23.47245 | 15393 ft | 380 kts | 49° |
| 2026-04-17 04:26 | 16.21274 | -23.45163 | 14885 ft | 374 kts | 49° |
| 2026-04-17 04:26 | 16.22948 | -23.43135 | 14390 ft | 370 kts | 50° |
| 2026-04-17 04:26 | 16.24634 | -23.41090 | 13913 ft | 376 kts | 50° |
| 2026-04-17 04:26 | 16.26355 | -23.39004 | 13372 ft | 380 kts | 50° |
| 2026-04-17 04:27 | 16.28082 | -23.36910 | 12893 ft | 381 kts | 50° |
| 2026-04-17 04:27 | 16.29790 | -23.34837 | 12386 ft | 379 kts | 50° |
| 2026-04-17 04:27 | 16.31508 | -23.32752 | 11886 ft | 376 kts | 50° |
| 2026-04-17 04:27 | 16.33209 | -23.30691 | 11388 ft | 372 kts | 50° |
| 2026-04-17 04:28 | 16.34888 | -23.28652 | 10901 ft | 370 kts | 50° |
| 2026-04-17 04:28 | 16.36542 | -23.26647 | 10413 ft | 366 kts | 50° |
| 2026-04-17 04:28 | 16.38197 | -23.24641 | 9931 ft | 364 kts | 50° |
| 2026-04-17 04:28 | 16.39824 | -23.22660 | 9427 ft | 352 kts | 50° |
| 2026-04-17 04:29 | 16.41394 | -23.20751 | 8987 ft | 340 kts | 50° |
| 2026-04-17 04:29 | 16.42913 | -23.18903 | 8535 ft | 331 kts | 50° |
| 2026-04-17 04:29 | 16.44390 | -23.17109 | 8103 ft | 322 kts | 49° |
| 2026-04-17 04:29 | 16.45834 | -23.15356 | 7681 ft | 315 kts | 49° |
| 2026-04-17 04:30 | 16.47249 | -23.13635 | 7266 ft | 309 kts | 49° |
| 2026-04-17 04:30 | 16.48617 | -23.11970 | 6872 ft | 304 kts | 49° |
| 2026-04-17 04:30 | 16.49981 | -23.10313 | 6472 ft | 298 kts | 48° |
| 2026-04-17 04:30 | 16.51328 | -23.08677 | 6069 ft | 294 kts | 48° |
| 2026-04-17 04:31 | 16.52651 | -23.07069 | 5686 ft | 289 kts | 48° |
| 2026-04-17 04:31 | 16.53818 | -23.05425 | 5379 ft | 284 kts | 63° |
| 2026-04-17 04:31 | 16.54297 | -23.03415 | 5024 ft | 285 kts | 84° |
| 2026-04-17 04:31 | 16.54400 | -23.01365 | 4623 ft | 287 kts | 88° |
| 2026-04-17 04:32 | 16.54463 | -22.99306 | 4231 ft | 283 kts | 87° |
| 2026-04-17 04:32 | 16.54564 | -22.97262 | 3859 ft | 279 kts | 83° |
| 2026-04-17 04:32 | 16.55213 | -22.95393 | 3477 ft | 273 kts | 51° |
| 2026-04-17 04:32 | 16.56660 | -22.94233 | 3199 ft | 263 kts | 19° |
| 2026-04-17 04:33 | 16.58417 | -22.94085 | 3055 ft | 248 kts | 351° |
| 2026-04-17 04:33 | 16.60037 | -22.94413 | 3088 ft | 223 kts | 349° |
| 2026-04-17 04:33 | 16.61485 | -22.94632 | 3021 ft | 202 kts | 353° |
| 2026-04-17 04:33 | 16.62817 | -22.94739 | 2982 ft | 175 kts | 356° |
| 2026-04-17 04:34 | 16.64881 | -22.94821 | 2607 ft | 144 kts | 358° |
| 2026-04-17 04:34 | 16.65876 | -22.94842 | 2036 ft | 143 kts | 359° |
| 2026-04-17 04:34 | 16.66865 | -22.94847 | 1465 ft | 140 kts | 0° |
| 2026-04-17 04:35 | 16.67792 | -22.94855 | 1152 ft | 124 kts | 360° |
| 2026-04-17 04:35 | 16.68611 | -22.94860 | 940 ft | 116 kts | 359° |
| 2026-04-17 04:35 | 16.69402 | -22.94863 | 714 ft | 111 kts | 358° |
| 2026-04-17 04:35 | 16.70175 | -22.94876 | 508 ft | 110 kts | 359° |
| 2026-04-17 04:36 | 16.70930 | -22.94889 | 500 ft | 111 kts | 359° |
| 2026-04-17 04:36 | 16.71697 | -22.94880 | 353 ft | 106 kts | 357° |
| 2026-04-17 04:36 | 16.72434 | -22.94888 | 211 ft | 111 kts | 0° |
| 2026-04-17 04:36 | 16.73139 | -22.94891 | 200 ft | 86 kts | 0° |
| 2026-04-17 04:37 | 16.73612 | -22.94894 | 198 ft | 48 kts | 359° |
| 2026-04-17 04:37 | 16.73930 | -22.94896 | 187 ft | 42 kts | 360° |
| 2026-04-17 04:37 | 16.74169 | -22.94896 | 184 ft | 27 kts | 5° |
| 2026-04-17 04:37 | 16.74258 | -22.94812 | 189 ft | 17 kts | 56° |
| 2026-04-17 04:38 | 16.74294 | -22.94718 | 183 ft | 7 kts | 121° |
| 2026-04-17 04:38 | 16.74229 | -22.94700 | 191 ft | 15 kts | 180° |
| 2026-04-17 04:38 | 16.74089 | -22.94699 | 184 ft | 23 kts | 180° |
| 2026-04-17 04:38 | 16.73926 | -22.94698 | 205 ft | 20 kts | 180° |
| 2026-04-17 04:39 | 16.73785 | -22.94696 | 208 ft | 22 kts | 179° |
| 2026-04-17 04:39 | 16.73635 | -22.94672 | 203 ft | 21 kts | 150° |
| 2026-04-17 04:39 | 16.73607 | -22.94544 | 202 ft | 14 kts | 116° |
| 2026-04-17 04:39 | 16.73583 | -22.94505 | 206 ft | 0 kts | 123° |